createdAt,value
2018-01-05T00:00:11.771Z,0
2018-01-05T00:01:21.221Z,0
2018-01-05T00:02:31.210Z,0
2018-01-05T00:03:41.191Z,0
2018-01-05T00:04:50.907Z,0
2018-01-05T00:06:00.940Z,0
2018-01-05T00:07:10.929Z,0
2018-01-05T00:08:20.913Z,0
2018-01-05T00:09:30.377Z,0
2018-01-05T00:10:40.412Z,0
2018-01-05T00:11:50.400Z,0
2018-01-05T00:13:00.382Z,0
2018-01-05T00:14:10.100Z,0
2018-01-05T00:15:20.083Z,0
2018-01-05T00:16:30.067Z,0
2018-01-05T00:17:40.061Z,0
2018-01-05T00:18:50.045Z,0
2018-01-05T00:19:59.760Z,0
2018-01-05T00:21:09.241Z,0
2018-01-05T00:22:18.960Z,0
2018-01-05T00:23:28.942Z,0
2018-01-05T00:24:38.665Z,0
2018-01-05T00:25:48.705Z,0
2018-01-05T00:26:58.687Z,0
2018-01-05T00:28:08.680Z,0
2018-01-05T00:29:18.669Z,0
2018-01-05T00:30:28.702Z,0
2018-01-05T00:31:38.688Z,0
2018-01-05T00:32:48.673Z,0
2018-01-05T00:33:58.657Z,0
2018-01-05T00:35:08.378Z,0
2018-01-05T00:36:18.361Z,0
2018-01-05T00:37:28.077Z,0
2018-01-05T00:38:38.061Z,0
2018-01-05T00:39:48.044Z,0
2018-01-05T00:40:57.230Z,0
2018-01-05T00:42:06.694Z,0
2018-01-05T00:43:16.679Z,0
2018-01-05T00:44:26.667Z,0
2018-01-05T00:45:36.388Z,0
2018-01-05T00:46:46.382Z,0
2018-01-05T00:47:56.366Z,0
2018-01-05T00:49:05.829Z,0
2018-01-05T00:50:15.821Z,0
2018-01-05T00:51:25.807Z,0
2018-01-05T00:52:35.792Z,0
2018-01-05T00:53:45.775Z,0
2018-01-05T00:54:55.755Z,0
2018-01-05T00:56:05.476Z,0
2018-01-05T00:57:15.199Z,0
2018-01-05T00:58:25.183Z,0
2018-01-05T00:59:35.165Z,0
2018-01-05T01:00:45.151Z,0
2018-01-05T01:01:55.142Z,0
2018-01-05T01:03:04.866Z,0
2018-01-05T01:04:14.849Z,0
2018-01-05T01:05:24.317Z,0
2018-01-05T01:06:34.304Z,0
2018-01-05T01:07:44.285Z,0
2018-01-05T01:08:54.267Z,0
2018-01-05T01:10:03.986Z,0
2018-01-05T01:11:13.974Z,0
2018-01-05T01:12:23.694Z,0
2018-01-05T01:13:33.678Z,0
2018-01-05T01:14:43.667Z,0
2018-01-05T01:15:53.384Z,0
2018-01-05T01:17:03.425Z,0
2018-01-05T01:18:13.140Z,0
2018-01-05T01:19:23.135Z,0
2018-01-05T01:20:33.113Z,0
2018-01-05T01:21:43.113Z,0
2018-01-05T01:22:52.833Z,0
2018-01-05T01:24:02.814Z,0
2018-01-05T01:25:12.802Z,0
2018-01-05T01:26:22.788Z,0
2018-01-05T01:27:32.776Z,0
2018-01-05T01:28:42.761Z,0
2018-01-05T01:29:52.760Z,0
2018-01-05T01:31:02.742Z,0
2018-01-05T01:32:12.465Z,0
2018-01-05T01:33:22.464Z,0
2018-01-05T01:34:32.449Z,0
2018-01-05T01:35:42.435Z,0
2018-01-05T01:36:52.162Z,0
2018-01-05T01:38:01.876Z,0
2018-01-05T01:39:11.329Z,0
2018-01-05T01:40:21.048Z,0
2018-01-05T01:41:30.764Z,0
2018-01-05T01:42:40.477Z,0
2018-01-05T01:43:50.461Z,0
2018-01-05T01:44:59.913Z,0
2018-01-05T01:46:09.371Z,0
2018-01-05T01:47:19.360Z,0
2018-01-05T01:48:29.341Z,0
2018-01-05T01:49:39.065Z,0
2018-01-05T01:50:49.056Z,0
2018-01-05T01:51:59.038Z,0
2018-01-05T01:53:08.760Z,0
2018-01-05T01:54:18.748Z,0
2018-01-05T01:55:28.729Z,0
2018-01-05T01:56:38.712Z,0
2018-01-05T01:57:48.695Z,0
2018-01-05T01:58:58.685Z,0
2018-01-05T02:00:08.402Z,0
2018-01-05T02:01:18.130Z,0
2018-01-05T02:02:27.844Z,0
2018-01-05T02:03:37.829Z,0
2018-01-05T02:04:47.817Z,0
2018-01-05T02:05:57.816Z,0
2018-01-05T02:07:07.267Z,0
2018-01-05T02:08:17.254Z,0
2018-01-05T02:09:26.441Z,0
2018-01-05T02:10:36.421Z,0
2018-01-05T02:11:46.137Z,0
2018-01-05T02:12:56.121Z,0
2018-01-05T02:14:06.107Z,0
2018-01-05T02:15:15.823Z,0
2018-01-05T02:16:25.802Z,0
2018-01-05T02:17:34.721Z,0
2018-01-05T02:18:44.701Z,0
2018-01-05T02:19:54.421Z,0
2018-01-05T02:21:04.144Z,0
2018-01-05T02:22:14.141Z,0
2018-01-05T02:23:25.861Z,0
2018-01-05T02:24:35.585Z,0
2018-01-05T02:25:45.568Z,0
2018-01-05T02:26:55.553Z,0
2018-01-05T02:28:05.321Z,0
2018-01-05T02:29:15.304Z,0
2018-01-05T02:30:25.289Z,0
2018-01-05T02:31:35.274Z,0
2018-01-05T02:32:45.260Z,0
2018-01-05T02:33:55.246Z,0
2018-01-05T02:35:05.231Z,0
2018-01-05T02:36:15.224Z,0
2018-01-05T02:37:25.208Z,0
2018-01-05T02:38:35.200Z,0
2018-01-05T02:39:45.186Z,0
2018-01-05T02:40:55.191Z,0
2018-01-05T02:42:05.180Z,0
2018-01-05T02:43:14.903Z,0
2018-01-05T02:44:24.889Z,0
2018-01-05T02:45:34.873Z,0
2018-01-05T02:46:44.596Z,0
2018-01-05T02:47:54.591Z,0
2018-01-05T02:49:04.316Z,0
2018-01-05T02:50:14.300Z,0
2018-01-05T02:51:24.283Z,0
2018-01-05T02:52:34.265Z,0
2018-01-05T02:53:44.258Z,0
2018-01-05T02:54:54.255Z,0
2018-01-05T02:56:03.705Z,0
2018-01-05T02:57:13.693Z,0
2018-01-05T02:58:23.684Z,0
2018-01-05T02:59:33.408Z,0
2018-01-05T03:00:43.392Z,0
2018-01-05T03:01:53.372Z,0
2018-01-05T03:03:03.354Z,0
2018-01-05T03:04:13.337Z,0
2018-01-05T03:05:23.316Z,0
2018-01-05T03:06:33.301Z,0
2018-01-05T03:07:43.284Z,0
2018-01-05T03:08:53.265Z,0
2018-01-05T03:10:03.249Z,0
2018-01-05T03:11:13.254Z,0
2018-01-05T03:12:23.238Z,0
2018-01-05T03:13:32.955Z,0
2018-01-05T03:14:42.678Z,0
2018-01-05T03:15:52.655Z,0
2018-01-05T03:17:02.640Z,0
2018-01-05T03:18:12.618Z,0
2018-01-05T03:19:22.600Z,0
2018-01-05T03:20:32.585Z,0
2018-01-05T03:21:42.573Z,0
2018-01-05T03:22:52.553Z,0
2018-01-05T03:24:02.544Z,0
2018-01-05T03:25:12.263Z,0
2018-01-05T03:26:22.253Z,0
2018-01-05T03:27:32.233Z,0
2018-01-05T03:28:41.950Z,0
2018-01-05T03:29:51.668Z,0
2018-01-05T03:31:01.689Z,0
2018-01-05T03:32:11.416Z,0
2018-01-05T03:33:21.393Z,0
2018-01-05T03:34:31.380Z,0
2018-01-05T03:35:41.369Z,0
2018-01-05T03:36:51.349Z,0
2018-01-05T03:38:01.072Z,0
2018-01-05T03:39:10.790Z,0
2018-01-05T03:40:20.835Z,0
2018-01-05T03:41:30.817Z,0
2018-01-05T03:42:40.800Z,0
2018-01-05T03:43:50.792Z,0
2018-01-05T03:45:00.774Z,0
2018-01-05T03:46:10.230Z,0
2018-01-05T03:47:19.682Z,0
2018-01-05T03:48:29.661Z,0
2018-01-05T03:49:39.645Z,0
2018-01-05T03:50:49.631Z,0
2018-01-05T03:51:59.612Z,0
2018-01-05T03:53:09.338Z,0
2018-01-05T03:54:19.317Z,0
2018-01-05T03:55:29.297Z,0
2018-01-05T03:56:39.278Z,0
2018-01-05T03:57:49.316Z,0
2018-01-05T03:58:59.299Z,0
2018-01-05T04:00:09.317Z,0
2018-01-05T04:03:51.608Z,0
2018-01-05T04:05:01.593Z,0
2018-01-05T04:06:11.588Z,0
2018-01-05T04:07:21.311Z,0
2018-01-05T04:08:31.030Z,0
2018-01-05T04:09:41.015Z,0
2018-01-05T04:10:51.000Z,0
2018-01-05T04:12:00.719Z,0
2018-01-05T04:13:10.700Z,0
2018-01-05T04:14:20.692Z,0
2018-01-05T04:15:30.408Z,0
2018-01-05T04:16:40.124Z,0
2018-01-05T04:17:49.845Z,0
2018-01-05T04:18:59.825Z,0
2018-01-05T04:20:09.811Z,0
2018-01-05T04:21:19.265Z,0
2018-01-05T04:22:29.243Z,0
2018-01-05T04:23:38.959Z,0
2018-01-05T04:24:48.945Z,0
2018-01-05T04:25:58.923Z,0
2018-01-05T04:27:08.373Z,0
2018-01-05T04:28:18.369Z,0
2018-01-05T04:29:28.085Z,0
2018-01-05T04:30:38.065Z,0
2018-01-05T04:31:48.049Z,0
2018-01-05T04:32:58.028Z,0
2018-01-05T04:34:08.009Z,0
2018-01-05T04:35:17.990Z,0
2018-01-05T04:36:27.710Z,0
2018-01-05T04:37:37.701Z,0
2018-01-05T04:38:47.419Z,0
2018-01-05T04:39:57.402Z,0
2018-01-05T04:41:07.130Z,0
2018-01-05T04:42:17.109Z,0
2018-01-05T04:43:27.134Z,0
2018-01-05T04:44:37.115Z,0
2018-01-05T04:45:47.103Z,0
2018-01-05T04:46:57.081Z,0
2018-01-05T04:48:06.797Z,0
2018-01-05T04:49:16.517Z,0
2018-01-05T04:50:26.236Z,0
2018-01-05T04:51:35.955Z,0
2018-01-05T04:52:45.935Z,0
2018-01-05T04:53:55.918Z,0
2018-01-05T04:55:05.638Z,0
2018-01-05T04:56:15.622Z,0
2018-01-05T04:57:25.339Z,0
2018-01-05T04:58:35.322Z,0
2018-01-05T04:59:45.307Z,0
2018-01-05T05:00:55.287Z,0
2018-01-05T05:02:05.257Z,0
2018-01-05T05:03:15.244Z,0
2018-01-05T05:04:25.235Z,0
2018-01-05T05:05:35.214Z,0
2018-01-05T05:06:45.197Z,0
2018-01-05T05:07:55.178Z,0
2018-01-05T05:09:05.172Z,0
2018-01-05T05:10:15.153Z,0
2018-01-05T05:11:25.132Z,0
2018-01-05T05:12:35.123Z,0
2018-01-05T05:13:45.104Z,0
2018-01-05T05:14:55.085Z,0
2018-01-05T05:16:04.805Z,0
2018-01-05T05:17:14.526Z,0
2018-01-05T05:18:24.511Z,0
2018-01-05T05:19:34.498Z,0
2018-01-05T05:20:44.479Z,0
2018-01-05T05:21:54.466Z,0
2018-01-05T05:23:03.927Z,0
2018-01-05T05:24:13.647Z,0
2018-01-05T05:25:23.634Z,0
2018-01-05T05:26:33.611Z,0
2018-01-05T05:27:43.328Z,0
2018-01-05T05:28:53.311Z,0
2018-01-05T05:30:03.027Z,0
2018-01-05T05:31:13.009Z,0
2018-01-05T05:32:22.987Z,0
2018-01-05T05:33:32.977Z,0
2018-01-05T05:34:42.957Z,0
2018-01-05T05:35:52.940Z,0
2018-01-05T05:37:02.395Z,0
2018-01-05T05:38:11.854Z,0
2018-01-05T05:39:21.837Z,0
2018-01-05T05:40:31.816Z,0
2018-01-05T05:41:41.538Z,0
2018-01-05T05:42:51.251Z,0
2018-01-05T05:44:01.241Z,0
2018-01-05T05:45:11.239Z,0
2018-01-05T05:46:20.952Z,0
2018-01-05T05:47:30.940Z,0
2018-01-05T05:48:40.925Z,0
2018-01-05T05:49:50.907Z,0
2018-01-05T05:51:00.893Z,0
2018-01-05T05:52:10.346Z,0
2018-01-05T05:53:20.326Z,0
2018-01-05T05:54:30.369Z,0
2018-01-05T05:55:40.360Z,0
2018-01-05T05:56:50.072Z,0
2018-01-05T05:58:00.054Z,0
2018-01-05T05:59:09.504Z,0
2018-01-05T06:00:18.961Z,0
2018-01-05T06:01:28.677Z,0
2018-01-05T06:02:38.657Z,0
2018-01-05T06:03:48.643Z,0
2018-01-05T06:04:58.672Z,0
2018-01-05T06:06:08.390Z,0
2018-01-05T06:07:18.368Z,0
2018-01-05T06:08:28.347Z,0
2018-01-05T06:09:38.063Z,0
2018-01-05T06:10:48.044Z,0
2018-01-05T06:11:58.024Z,0
2018-01-05T06:13:07.738Z,0
2018-01-05T06:14:17.727Z,0
2018-01-05T06:15:27.763Z,0
2018-01-05T06:16:37.479Z,0
2018-01-05T06:17:47.372Z,0
2018-01-05T06:18:57.361Z,0
2018-01-05T06:20:07.351Z,0
2018-01-05T06:21:17.071Z,0
2018-01-05T06:22:27.059Z,0
2018-01-05T06:23:37.036Z,0
2018-01-05T06:24:47.037Z,0
2018-01-05T06:25:56.490Z,0
2018-01-05T06:27:05.945Z,0
2018-01-05T06:28:15.930Z,0
2018-01-05T06:29:25.914Z,0
2018-01-05T06:30:35.944Z,0
2018-01-05T06:31:45.925Z,0
2018-01-05T06:32:55.644Z,0
2018-01-05T06:34:05.363Z,0
2018-01-05T06:35:15.080Z,0
2018-01-05T06:36:24.807Z,0
2018-01-05T06:37:34.525Z,0
2018-01-05T06:38:44.506Z,0
2018-01-05T06:39:54.490Z,0
2018-01-05T06:41:04.211Z,0
2018-01-05T06:42:14.195Z,0
2018-01-05T06:43:24.174Z,0
2018-01-05T06:44:34.167Z,0
2018-01-05T06:45:45.317Z,0
2018-01-05T06:46:57.303Z,0
2018-01-05T06:48:07.283Z,0
2018-01-05T06:49:17.272Z,0
2018-01-05T06:50:27.704Z,0
2018-01-05T06:51:37.684Z,0
2018-01-05T06:52:47.665Z,0
2018-01-05T06:53:57.649Z,0
2018-01-05T06:55:07.383Z,0
2018-01-05T06:56:17.176Z,0
2018-01-05T06:57:27.156Z,0
2018-01-05T06:58:39.140Z,0
2018-01-05T06:59:49.146Z,0
2018-01-05T07:00:59.130Z,0
2018-01-05T07:02:08.091Z,0
2018-01-05T07:03:18.081Z,0
2018-01-05T07:04:27.806Z,0
2018-01-05T07:05:37.785Z,0
2018-01-05T07:06:47.497Z,0
2018-01-05T07:07:56.949Z,0
2018-01-05T07:09:07.034Z,0
2018-01-05T07:10:16.823Z,0
2018-01-05T07:11:26.283Z,0
2018-01-05T07:12:35.999Z,0
2018-01-05T07:13:45.982Z,0
2018-01-05T07:14:55.958Z,0
2018-01-05T07:16:05.988Z,0
2018-01-05T07:17:15.969Z,0
2018-01-05T07:18:25.956Z,0
2018-01-05T07:19:35.404Z,0
2018-01-05T07:20:45.119Z,0
2018-01-05T07:21:55.098Z,0
2018-01-05T07:23:04.817Z,0
2018-01-05T07:24:14.530Z,0
2018-01-05T07:25:24.519Z,0
2018-01-05T07:26:34.505Z,0
2018-01-05T07:27:44.490Z,0
2018-01-05T07:28:54.472Z,0
2018-01-05T07:30:04.193Z,0
2018-01-05T07:31:13.917Z,0
2018-01-05T07:32:23.897Z,0
2018-01-05T07:33:33.615Z,0
2018-01-05T07:34:43.598Z,0
2018-01-05T07:35:53.313Z,0
2018-01-05T07:37:03.296Z,0
2018-01-05T07:38:13.283Z,0
2018-01-05T07:39:23.515Z,0
2018-01-05T07:40:33.232Z,0
2018-01-05T07:41:43.258Z,0
2018-01-05T07:42:53.246Z,0
2018-01-05T07:44:02.698Z,0
2018-01-05T07:45:12.416Z,0
2018-01-05T07:46:22.130Z,0
2018-01-05T07:47:32.112Z,0
2018-01-05T07:48:42.094Z,0
2018-01-05T07:49:52.074Z,0
2018-01-05T07:51:01.798Z,0
2018-01-05T07:52:11.528Z,0
2018-01-05T07:53:21.508Z,0
2018-01-05T07:54:31.490Z,0
2018-01-05T07:55:41.474Z,0
2018-01-05T07:56:51.193Z,0
2018-01-05T07:58:01.184Z,0
2018-01-05T07:59:10.901Z,0
2018-01-05T08:00:20.617Z,0
2018-01-05T08:01:30.595Z,0
2018-01-05T08:02:43.762Z,0
2018-01-05T08:03:53.481Z,0
2018-01-05T08:05:03.199Z,0
2018-01-05T08:06:12.389Z,0
2018-01-05T08:07:22.381Z,0
2018-01-05T08:08:32.516Z,0
2018-01-05T08:09:42.495Z,5
2018-01-05T08:10:52.481Z,5
2018-01-05T08:12:02.477Z,5
2018-01-05T08:13:12.190Z,5
2018-01-05T08:14:22.443Z,5
2018-01-05T08:15:32.496Z,5
2018-01-05T08:16:42.215Z,5
2018-01-05T08:17:52.199Z,5
2018-01-05T08:19:02.182Z,5
2018-01-05T08:20:12.096Z,5
2018-01-05T08:21:22.083Z,5
2018-01-05T08:22:32.066Z,5
2018-01-05T08:23:41.790Z,5
2018-01-05T08:24:51.769Z,10
2018-01-05T08:26:01.806Z,10
2018-01-05T08:27:11.257Z,10
2018-01-05T08:28:21.234Z,10
2018-01-05T08:29:31.216Z,10
2018-01-05T08:30:41.203Z,10
2018-01-05T08:31:51.019Z,10
2018-01-05T08:33:01.006Z,15
2018-01-05T08:34:10.729Z,15
2018-01-05T08:35:20.447Z,15
2018-01-05T08:36:30.430Z,15
2018-01-05T08:37:40.499Z,15
2018-01-05T08:38:50.218Z,15
2018-01-05T08:39:59.935Z,20
2018-01-05T08:41:09.655Z,20
2018-01-05T08:42:19.637Z,20
2018-01-05T08:43:29.355Z,20
2018-01-05T08:44:39.336Z,20
2018-01-05T08:45:49.333Z,25
2018-01-05T08:46:59.325Z,25
2018-01-05T08:48:08.775Z,25
2018-01-05T08:49:18.492Z,25
2018-01-05T08:50:28.480Z,30
2018-01-05T08:51:38.470Z,30
2018-01-05T08:52:47.657Z,35
2018-01-05T08:53:57.374Z,35
2018-01-05T08:55:06.874Z,35
2018-01-05T08:56:16.589Z,40
2018-01-05T08:57:26.570Z,40
2018-01-05T08:58:36.549Z,40
2018-01-05T08:59:46.000Z,45
2018-01-05T09:00:55.714Z,45
2018-01-05T09:02:05.167Z,45
2018-01-05T09:03:15.162Z,45
2018-01-05T09:04:25.146Z,50
2018-01-05T09:05:35.129Z,50
2018-01-05T09:06:45.215Z,50
2018-01-05T09:07:55.198Z,50
2018-01-05T09:09:04.927Z,55
2018-01-05T09:10:14.950Z,55
2018-01-05T09:11:24.930Z,55
2018-01-05T09:12:34.912Z,55
2018-01-05T09:13:44.892Z,55
2018-01-05T09:14:54.872Z,55
2018-01-05T09:16:04.897Z,55
2018-01-05T09:17:14.354Z,55
2018-01-05T09:18:24.339Z,55
2018-01-05T09:19:34.056Z,55
2018-01-05T09:20:44.035Z,55
2018-01-05T09:21:53.751Z,55
2018-01-05T09:23:03.745Z,55
2018-01-05T09:24:13.785Z,55
2018-01-05T09:25:23.784Z,55
2018-01-05T09:26:33.766Z,55
2018-01-05T09:27:43.223Z,50
2018-01-05T09:28:52.938Z,50
2018-01-05T09:30:02.922Z,50
2018-01-05T09:31:12.915Z,50
2018-01-05T09:32:22.895Z,50
2018-01-05T09:33:32.946Z,50
2018-01-05T09:34:42.403Z,55
2018-01-05T09:35:52.388Z,55
2018-01-05T09:37:02.110Z,50
2018-01-05T09:38:11.560Z,50
2018-01-05T09:39:21.546Z,55
2018-01-05T09:40:31.260Z,55
2018-01-05T09:41:41.248Z,55
2018-01-05T09:42:51.232Z,55
2018-01-05T09:44:00.948Z,55
2018-01-05T09:45:10.670Z,55
2018-01-05T09:46:20.651Z,55
2018-01-05T09:47:30.639Z,55
2018-01-05T09:48:40.631Z,60
2018-01-05T09:49:50.609Z,60
2018-01-05T09:51:00.639Z,60
2018-01-05T09:52:10.361Z,60
2018-01-05T09:53:20.340Z,60
2018-01-05T09:54:30.324Z,60
2018-01-05T09:55:40.307Z,60
2018-01-05T09:56:50.284Z,60
2018-01-05T09:58:00.276Z,60
2018-01-05T09:59:10.037Z,60
2018-01-05T10:00:19.799Z,60
2018-01-05T10:01:29.784Z,60
2018-01-05T10:02:39.798Z,60
2018-01-05T10:03:49.784Z,60
2018-01-05T10:04:59.773Z,60
2018-01-05T10:06:09.499Z,60
2018-01-05T10:07:19.482Z,60
2018-01-05T10:08:29.205Z,60
2018-01-05T10:09:38.666Z,60
2018-01-05T10:10:48.664Z,60
2018-01-05T10:11:58.663Z,60
2018-01-05T10:13:08.649Z,60
2018-01-05T10:14:18.633Z,65
2018-01-05T10:15:28.350Z,65
2018-01-05T10:16:38.453Z,65
2018-01-05T10:17:48.454Z,65
2018-01-05T10:18:58.445Z,65
2018-01-05T10:20:08.173Z,65
2018-01-05T10:21:17.635Z,65
2018-01-05T10:22:27.617Z,65
2018-01-05T10:23:37.609Z,65
2018-01-05T10:24:47.639Z,65
2018-01-05T10:25:57.625Z,65
2018-01-05T10:27:07.618Z,70
2018-01-05T10:28:17.606Z,70
2018-01-05T10:29:27.592Z,70
2018-01-05T10:30:37.340Z,70
2018-01-05T10:31:47.332Z,75
2018-01-05T10:32:57.379Z,75
2018-01-05T10:34:07.814Z,75
2018-01-05T10:35:17.798Z,80
2018-01-05T10:36:27.521Z,80
2018-01-05T10:37:37.523Z,80
2018-01-05T10:38:47.238Z,80
2018-01-05T10:39:57.291Z,85
2018-01-05T10:41:07.279Z,85
2018-01-05T10:42:17.002Z,85
2018-01-05T10:43:26.991Z,85
2018-01-05T10:44:36.982Z,90
2018-01-05T10:45:46.969Z,90
2018-01-05T10:46:57.006Z,90
2018-01-05T10:48:06.459Z,90
2018-01-05T10:49:16.178Z,90
2018-01-05T10:50:25.900Z,90
2018-01-05T10:51:35.620Z,90
2018-01-05T10:52:45.612Z,90
2018-01-05T10:53:55.328Z,95
2018-01-05T10:55:05.046Z,95
2018-01-05T10:56:15.086Z,95
2018-01-05T10:57:25.129Z,95
2018-01-05T10:58:35.113Z,100
2018-01-05T10:59:45.103Z,100
2018-01-05T11:00:54.824Z,100
2018-01-05T11:02:04.820Z,100
2018-01-05T11:03:14.007Z,105
2018-01-05T11:04:23.996Z,100
2018-01-05T11:05:33.980Z,100
2018-01-05T11:06:43.965Z,100
2018-01-05T11:07:53.953Z,100
2018-01-05T11:09:03.937Z,100
2018-01-05T11:10:13.971Z,100
2018-01-05T11:11:23.691Z,100
2018-01-05T11:12:33.674Z,105
2018-01-05T11:13:43.661Z,105
2018-01-05T11:14:53.654Z,105
2018-01-05T11:16:03.641Z,105
2018-01-05T11:17:13.361Z,110
2018-01-05T11:18:23.092Z,110
2018-01-05T11:19:33.084Z,110
2018-01-05T11:20:43.070Z,110
2018-01-05T11:21:52.788Z,110
2018-01-05T11:23:02.507Z,110
2018-01-05T11:24:12.226Z,110
2018-01-05T11:25:22.208Z,110
2018-01-05T11:26:31.923Z,110
2018-01-05T11:27:41.907Z,110
2018-01-05T11:28:51.916Z,110
2018-01-05T11:30:01.638Z,110
2018-01-05T11:31:11.626Z,110
2018-01-05T11:32:21.613Z,110
2018-01-05T11:33:31.595Z,110
2018-01-05T11:34:41.644Z,110
2018-01-05T11:35:51.626Z,110
2018-01-05T11:37:01.079Z,115
2018-01-05T11:38:10.269Z,115
2018-01-05T11:39:19.987Z,115
2018-01-05T11:40:29.968Z,115
2018-01-05T11:41:39.763Z,115
2018-01-05T11:42:49.749Z,120
2018-01-05T11:43:59.472Z,115
2018-01-05T11:45:09.200Z,115
2018-01-05T11:46:18.928Z,115
2018-01-05T11:47:28.921Z,120
2018-01-05T11:48:38.903Z,120
2018-01-05T11:49:48.623Z,120
2018-01-05T11:50:58.608Z,125
2018-01-05T11:52:08.335Z,130
2018-01-05T11:53:17.782Z,135
2018-01-05T11:54:27.500Z,135
2018-01-05T11:55:37.271Z,135
2018-01-05T11:56:47.260Z,130
2018-01-05T11:57:57.259Z,130
2018-01-05T11:59:07.253Z,135
2018-01-05T12:00:17.242Z,135
2018-01-05T12:01:26.965Z,130
2018-01-05T12:02:36.949Z,130
2018-01-05T12:03:46.936Z,130
2018-01-05T12:04:56.925Z,130
2018-01-05T12:06:06.642Z,130
2018-01-05T12:07:16.637Z,125
2018-01-05T12:08:26.354Z,125
2018-01-05T12:09:36.342Z,125
2018-01-05T12:10:46.323Z,125
2018-01-05T12:11:56.045Z,125
2018-01-05T12:13:05.769Z,120
2018-01-05T12:14:15.802Z,120
2018-01-05T12:15:25.522Z,115
2018-01-05T12:16:35.504Z,115
2018-01-05T12:17:45.222Z,115
2018-01-05T12:18:55.207Z,115
2018-01-05T12:20:04.659Z,110
2018-01-05T12:21:14.640Z,110
2018-01-05T12:22:24.627Z,110
2018-01-05T12:23:34.343Z,110
2018-01-05T12:24:43.796Z,110
2018-01-05T12:25:53.786Z,110
2018-01-05T12:27:03.522Z,110
2018-01-05T12:28:13.243Z,105
2018-01-05T12:29:23.272Z,105
2018-01-05T12:30:33.314Z,105
2018-01-05T12:31:43.035Z,105
2018-01-05T12:32:52.485Z,105
2018-01-05T12:34:01.951Z,105
2018-01-05T12:35:11.934Z,105
2018-01-05T12:36:21.918Z,105
2018-01-05T12:37:31.903Z,105
2018-01-05T12:38:41.888Z,105
2018-01-05T12:39:51.869Z,100
2018-01-05T12:41:01.594Z,105
2018-01-05T12:42:11.318Z,105
2018-01-05T12:43:21.301Z,110
2018-01-05T12:44:31.290Z,105
2018-01-05T12:45:41.012Z,105
2018-01-05T12:46:51.003Z,110
2018-01-05T12:48:00.991Z,110
2018-01-05T12:49:11.039Z,115
2018-01-05T12:50:21.031Z,115
2018-01-05T12:51:30.756Z,115
2018-01-05T12:52:40.477Z,120
2018-01-05T12:53:50.466Z,120
2018-01-05T12:55:00.452Z,120
2018-01-05T12:56:09.911Z,115
2018-01-05T12:57:19.894Z,115
2018-01-05T12:58:29.876Z,115
2018-01-05T12:59:39.912Z,115
2018-01-05T13:00:49.898Z,115
2018-01-05T13:01:59.883Z,115
2018-01-05T13:03:09.602Z,110
2018-01-05T13:04:19.327Z,110
2018-01-05T13:05:29.311Z,110
2018-01-05T13:06:39.027Z,110
2018-01-05T13:07:49.008Z,110
2018-01-05T13:08:58.726Z,105
2018-01-05T13:10:08.718Z,100
2018-01-05T13:11:18.701Z,100
2018-01-05T13:12:28.687Z,100
2018-01-05T13:13:38.672Z,95
2018-01-05T13:14:48.661Z,95
2018-01-05T13:15:58.641Z,95
2018-01-05T13:17:08.364Z,90
2018-01-05T13:18:18.092Z,85
2018-01-05T13:19:27.545Z,85
2018-01-05T13:20:37.526Z,90
2018-01-05T13:21:47.248Z,90
2018-01-05T13:22:57.257Z,85
2018-01-05T13:24:07.246Z,85
2018-01-05T13:25:17.230Z,85
2018-01-05T13:26:27.216Z,80
2018-01-05T13:27:37.204Z,80
2018-01-05T13:28:47.190Z,80
2018-01-05T13:29:57.182Z,75
2018-01-05T13:31:06.900Z,75
2018-01-05T13:32:16.617Z,75
2018-01-05T13:33:26.604Z,75
2018-01-05T13:34:36.158Z,70
2018-01-05T13:35:46.142Z,70
2018-01-05T13:36:55.856Z,70
2018-01-05T13:38:05.846Z,70
2018-01-05T13:39:15.299Z,70
2018-01-05T13:40:24.490Z,70
2018-01-05T13:41:34.473Z,70
2018-01-05T13:42:44.192Z,65
2018-01-05T13:43:54.178Z,65
2018-01-05T13:45:03.902Z,65
2018-01-05T13:46:13.359Z,60
2018-01-05T13:47:23.339Z,60
2018-01-05T13:48:32.795Z,60
2018-01-05T13:49:42.513Z,60
2018-01-05T13:50:52.497Z,55
2018-01-05T13:52:02.489Z,55
2018-01-05T13:53:12.476Z,50
2018-01-05T13:54:22.194Z,50
2018-01-05T13:55:32.188Z,50
2018-01-05T13:56:41.641Z,45
2018-01-05T13:57:51.624Z,45
2018-01-05T13:59:01.610Z,45
2018-01-05T14:00:10.804Z,45
2018-01-05T14:01:20.788Z,45
2018-01-05T14:02:30.510Z,40
2018-01-05T14:03:40.489Z,40
2018-01-05T14:04:50.473Z,40
2018-01-05T14:06:00.457Z,35
2018-01-05T14:07:09.909Z,35
2018-01-05T14:08:19.767Z,30
2018-01-05T14:09:29.754Z,30
2018-01-05T14:10:39.736Z,30
2018-01-05T14:11:49.721Z,30
2018-01-05T14:12:59.701Z,25
2018-01-05T14:14:09.731Z,25
2018-01-05T14:15:19.713Z,25
2018-01-05T14:16:29.703Z,25
2018-01-05T14:17:39.694Z,20
2018-01-05T14:18:49.694Z,20
2018-01-05T14:19:59.675Z,20
2018-01-05T14:21:09.664Z,15
2018-01-05T14:22:19.687Z,15
2018-01-05T14:23:29.734Z,15
2018-01-05T14:24:39.714Z,15
2018-01-05T14:25:49.695Z,15
2018-01-05T14:26:59.669Z,10
2018-01-05T14:28:09.392Z,10
2018-01-05T14:29:19.108Z,10
2018-01-05T14:30:29.137Z,10
2018-01-05T14:31:38.826Z,10
2018-01-05T14:32:48.859Z,10
2018-01-05T14:33:58.854Z,10
2018-01-05T14:35:08.838Z,5
2018-01-05T14:36:18.820Z,5
2018-01-05T14:37:28.547Z,5
2018-01-05T14:38:38.527Z,5
2018-01-05T14:39:48.514Z,5
2018-01-05T14:40:57.970Z,5
2018-01-05T14:42:07.706Z,5
2018-01-05T14:43:17.700Z,5
2018-01-05T14:44:27.420Z,5
2018-01-05T14:45:37.409Z,0
2018-01-05T14:46:47.392Z,0
2018-01-05T14:47:57.122Z,0
2018-01-05T14:49:07.107Z,0
2018-01-05T14:50:16.840Z,0
2018-01-05T14:51:26.868Z,0
2018-01-05T14:52:36.850Z,0
2018-01-05T14:53:46.834Z,0
2018-01-05T14:54:56.816Z,0
2018-01-05T14:56:06.801Z,0
2018-01-05T14:57:16.793Z,0
2018-01-05T14:58:26.780Z,0
2018-01-05T14:59:36.492Z,0
2018-01-05T15:00:46.470Z,0
2018-01-05T15:01:56.450Z,0
2018-01-05T15:03:06.431Z,0
2018-01-05T15:04:16.422Z,0
2018-01-05T15:05:26.411Z,0
2018-01-05T15:06:36.396Z,0
2018-01-05T15:07:46.111Z,0
2018-01-05T15:08:56.095Z,0
2018-01-05T15:10:05.550Z,0
2018-01-05T15:11:15.264Z,0
2018-01-05T15:12:25.292Z,0
2018-01-05T15:13:35.277Z,0
2018-01-05T15:14:45.260Z,0
2018-01-05T15:15:55.020Z,0
2018-01-05T15:17:04.481Z,0
2018-01-05T15:18:14.464Z,0
2018-01-05T15:19:24.445Z,0
2018-01-05T15:20:34.164Z,0
2018-01-05T15:21:44.150Z,0
2018-01-05T15:22:53.600Z,0
2018-01-05T15:24:03.316Z,0
2018-01-05T15:25:13.300Z,0
2018-01-05T15:26:23.285Z,0
2018-01-05T15:27:33.273Z,0
2018-01-05T15:28:43.254Z,0
2018-01-05T15:29:53.296Z,0
2018-01-05T15:31:02.479Z,0
2018-01-05T15:32:12.464Z,0
2018-01-05T15:33:22.182Z,0
2018-01-05T15:34:31.897Z,0
2018-01-05T15:35:41.884Z,0
2018-01-05T15:36:51.939Z,0
2018-01-05T15:38:01.388Z,0
2018-01-05T15:39:11.178Z,0
2018-01-05T15:40:21.159Z,0
2018-01-05T15:41:31.151Z,0
2018-01-05T15:42:41.136Z,0
2018-01-05T15:43:51.122Z,0
2018-01-05T15:45:01.107Z,0
2018-01-05T15:46:11.133Z,0
2018-01-05T15:47:21.121Z,0
2018-01-05T15:48:31.099Z,0
2018-01-05T15:49:41.083Z,0
2018-01-05T15:50:51.067Z,0
2018-01-05T15:52:00.784Z,0
2018-01-05T15:53:10.507Z,0
2018-01-05T15:54:20.492Z,0
2018-01-05T15:55:30.472Z,0
2018-01-05T15:56:40.188Z,0
2018-01-05T15:57:50.179Z,0
2018-01-05T15:59:00.157Z,0
2018-01-05T16:00:09.081Z,0
2018-01-05T16:01:19.068Z,0
2018-01-05T16:02:29.049Z,0
2018-01-05T16:03:39.032Z,0
2018-01-05T16:04:49.019Z,0
2018-01-05T16:05:59.006Z,0
2018-01-05T16:07:08.997Z,0
2018-01-05T16:08:18.974Z,0
2018-01-05T16:09:28.691Z,0
2018-01-05T16:10:38.670Z,0
2018-01-05T16:11:48.653Z,0
2018-01-05T16:12:58.634Z,0
2018-01-05T16:14:08.663Z,0
2018-01-05T16:15:18.645Z,0
2018-01-05T16:16:28.627Z,0
2018-01-05T16:17:38.604Z,0
2018-01-05T16:18:48.589Z,0
2018-01-05T16:19:58.304Z,0
2018-01-05T16:21:08.034Z,0
2018-01-05T16:22:17.751Z,0
2018-01-05T16:23:27.740Z,0
2018-01-05T16:24:37.728Z,0
2018-01-05T16:25:47.710Z,0
2018-01-05T16:26:57.778Z,0
2018-01-05T16:28:07.766Z,0
2018-01-05T16:29:17.747Z,0
2018-01-05T16:30:27.464Z,0
2018-01-05T16:31:37.453Z,0
2018-01-05T16:32:47.436Z,0
2018-01-05T16:33:57.414Z,0
2018-01-05T16:35:07.497Z,0
2018-01-05T16:36:17.480Z,0
2018-01-05T16:37:27.466Z,0
2018-01-05T16:38:37.449Z,0
2018-01-05T16:39:47.481Z,0
2018-01-05T16:40:57.198Z,0
2018-01-05T16:42:06.925Z,0
2018-01-05T16:43:16.649Z,0
2018-01-05T16:44:26.648Z,0
2018-01-05T16:45:36.631Z,0
2018-01-05T16:46:46.620Z,0
2018-01-05T16:47:56.604Z,0
2018-01-05T16:49:06.596Z,0
2018-01-05T16:50:16.312Z,0
2018-01-05T16:51:26.293Z,0
2018-01-05T16:52:36.010Z,0
2018-01-05T16:53:45.988Z,0
2018-01-05T16:54:55.446Z,0
2018-01-05T16:56:05.167Z,0
2018-01-05T16:57:15.154Z,0